createdAt,value
2022-11-03T00:00:00.706Z,15.77
2022-11-03T00:02:50.366Z,11.70
2022-11-03T00:04:13.456Z,15.94
2022-11-03T00:05:34.764Z,15.26
2022-11-03T00:06:55.901Z,15.28
2022-11-03T00:09:27.673Z,11.34
2022-11-03T00:10:49.947Z,14.55
2022-11-03T00:12:11.366Z,15.82
2022-11-03T00:13:32.769Z,14.49
2022-11-03T00:14:54.389Z,14.72
2022-11-03T00:16:15.936Z,15.65
2022-11-03T00:18:51.277Z,14.11
2022-11-03T00:20:13.093Z,14.14
2022-11-03T00:21:34.569Z,12.94
2022-11-03T00:22:56.530Z,15.00
2022-11-03T00:24:18.029Z,13.23
2022-11-03T00:25:40.362Z,14.81
2022-11-03T00:27:01.593Z,14.69
2022-11-03T00:28:23.284Z,15.53
2022-11-03T00:30:54.476Z,14.79
2022-11-03T00:32:15.903Z,14.38
2022-11-03T00:33:38.563Z,13.96
2022-11-03T00:35:00.861Z,12.46
2022-11-03T00:36:34.790Z,15.34
2022-11-03T00:37:55.989Z,15.80
2022-11-03T00:39:17.879Z,15.85
2022-11-03T00:40:38.879Z,14.08
2022-11-03T00:42:00.356Z,13.61
2022-11-03T00:43:22.643Z,14.83
2022-11-03T00:44:43.889Z,14.40
2022-11-03T00:46:06.230Z,14.43
2022-11-03T00:47:27.584Z,15.33
2022-11-03T00:48:49.080Z,13.61
2022-11-03T00:50:10.698Z,15.69
2022-11-03T00:51:33.068Z,14.91
2022-11-03T00:52:54.550Z,15.80
2022-11-03T00:54:15.918Z,15.56
2022-11-03T00:55:37.476Z,14.67
2022-11-03T00:56:58.926Z,16.14
2022-11-03T00:58:20.029Z,15.53
2022-11-03T00:59:41.192Z,15.46
2022-11-03T01:01:04.850Z,15.29
2022-11-03T01:02:26.484Z,15.41
2022-11-03T01:03:53.506Z,14.15
2022-11-03T01:05:15.075Z,16.42
2022-11-03T01:06:38.828Z,14.28
2022-11-03T01:09:25.882Z,17.22
2022-11-03T01:10:47.582Z,17.68
2022-11-03T01:13:25.762Z,11.72
2022-11-03T01:14:48.982Z,17.59
2022-11-03T01:16:10.518Z,14.89
2022-11-03T01:17:31.675Z,16.39
2022-11-03T01:18:53.268Z,15.32
2022-11-03T01:20:15.081Z,15.91
2022-11-03T01:21:36.109Z,17.02
2022-11-03T01:22:57.488Z,16.88
2022-11-03T01:24:19.944Z,16.07
2022-11-03T01:25:41.077Z,17.30
2022-11-03T01:27:02.650Z,15.84
2022-11-03T01:28:24.013Z,16.25
2022-11-03T01:29:47.108Z,14.05
2022-11-03T01:32:29.226Z,15.31
2022-11-03T01:33:51.663Z,15.47
2022-11-03T01:35:12.801Z,16.36
2022-11-03T01:36:34.353Z,16.75
2022-11-03T01:37:55.654Z,17.65
2022-11-03T01:39:18.097Z,14.12
2022-11-03T01:40:39.516Z,18.37
2022-11-03T01:42:00.934Z,17.71
2022-11-03T01:43:22.555Z,16.63
2022-11-03T01:44:47.408Z,18.04
2022-11-03T01:46:23.049Z,19.17
2022-11-03T01:47:44.844Z,18.12
2022-11-03T01:49:21.674Z,15.55
2022-11-03T01:50:42.681Z,17.75
2022-11-03T01:53:42.092Z,18.43
2022-11-03T01:55:06.300Z,16.79
2022-11-03T01:56:28.894Z,17.27
2022-11-03T01:59:15.000Z,15.02
2022-11-03T02:01:57.905Z,18.33
2022-11-03T02:03:19.448Z,16.21
2022-11-03T02:04:40.735Z,17.45
2022-11-03T02:06:02.629Z,16.02
2022-11-03T02:07:26.822Z,17.09
2022-11-03T02:08:53.972Z,15.69
2022-11-03T02:10:16.426Z,17.31
2022-11-03T02:11:37.735Z,15.96
2022-11-03T02:12:58.741Z,19.15
2022-11-03T02:14:20.458Z,17.71
2022-11-03T02:15:42.030Z,16.43
2022-11-03T02:17:06.409Z,17.42
2022-11-03T02:18:29.582Z,16.58
2022-11-03T02:21:08.274Z,15.11
2022-11-03T02:24:16.387Z,14.45
2022-11-03T02:25:43.960Z,17.11
2022-11-03T02:27:05.609Z,16.70
2022-11-03T02:28:30.664Z,17.22
2022-11-03T02:29:51.745Z,16.20
2022-11-03T02:31:22.061Z,17.14
2022-11-03T02:32:58.260Z,15.62
2022-11-03T02:34:29.318Z,15.31
2022-11-03T02:35:56.799Z,17.56
2022-11-03T02:37:22.802Z,13.91
2022-11-03T02:40:05.803Z,16.80
2022-11-03T02:41:27.945Z,15.47
2022-11-03T02:42:50.325Z,16.87
2022-11-03T02:44:14.555Z,14.86
2022-11-03T02:45:35.668Z,17.40
2022-11-03T02:46:59.440Z,17.32
2022-11-03T02:49:48.699Z,16.21
2022-11-03T02:51:09.837Z,17.81
2022-11-03T02:52:39.785Z,15.84
2022-11-03T02:54:07.987Z,14.07
2022-11-03T02:55:38.786Z,16.29
2022-11-03T02:57:02.852Z,15.28
2022-11-03T02:59:58.692Z,15.60
2022-11-03T03:01:37.536Z,16.93
2022-11-03T03:04:24.145Z,15.29
2022-11-03T03:05:45.638Z,15.15
2022-11-03T03:07:09.336Z,15.54
2022-11-03T03:08:30.753Z,17.39
2022-11-03T03:10:03.054Z,14.82
2022-11-03T03:11:24.436Z,17.54
2022-11-03T03:13:58.431Z,12.79
2022-11-03T03:15:23.106Z,13.06
2022-11-03T03:17:03.221Z,17.21
2022-11-03T03:18:27.218Z,14.83
2022-11-03T03:19:57.687Z,16.31
2022-11-03T03:21:24.664Z,16.52
2022-11-03T03:22:49.188Z,14.63
2022-11-03T03:25:43.039Z,15.94
2022-11-03T03:27:04.190Z,15.65
2022-11-03T03:28:34.436Z,14.56
2022-11-03T03:29:58.081Z,15.98
2022-11-03T03:31:19.606Z,15.00
2022-11-03T03:32:44.151Z,16.83
2022-11-03T03:34:23.624Z,18.03
2022-11-03T03:35:28.719Z,15.19
2022-11-03T03:36:50.087Z,13.72
2022-11-03T03:38:30.298Z,15.67
2022-11-03T03:39:52.654Z,16.38
2022-11-03T03:41:14.516Z,14.64
2022-11-03T03:42:35.848Z,17.38
2022-11-03T03:43:58.404Z,17.65
2022-11-03T03:45:19.781Z,16.04
2022-11-03T03:46:42.063Z,18.60
2022-11-03T03:48:03.825Z,14.74
2022-11-03T03:49:24.765Z,15.60
2022-11-03T03:50:46.290Z,14.32
2022-11-03T03:52:07.367Z,14.87
2022-11-03T03:53:29.416Z,15.24
2022-11-03T03:54:51.162Z,13.86
2022-11-03T03:56:13.304Z,15.54
2022-11-03T03:57:34.394Z,14.13
2022-11-03T03:58:55.691Z,15.09
2022-11-03T04:00:17.027Z,14.67
2022-11-03T04:01:38.382Z,14.70
2022-11-03T04:02:59.517Z,15.06
2022-11-03T04:04:21.044Z,12.41
2022-11-03T04:05:42.371Z,16.67
2022-11-03T04:07:03.814Z,14.71
2022-11-03T04:08:25.174Z,14.77
2022-11-03T04:09:46.473Z,13.42
2022-11-03T04:11:07.471Z,18.13
2022-11-03T04:12:28.758Z,14.18
2022-11-03T04:13:51.133Z,14.31
2022-11-03T04:15:12.448Z,12.71
2022-11-03T04:16:33.968Z,15.01
2022-11-03T04:17:55.270Z,14.03
2022-11-03T04:19:16.663Z,14.64
2022-11-03T04:20:37.727Z,14.33
2022-11-03T04:21:58.728Z,17.22
2022-11-03T04:23:19.612Z,11.96
2022-11-03T04:24:40.519Z,14.89
2022-11-03T04:26:01.496Z,13.17
2022-11-03T04:27:34.160Z,14.87
2022-11-03T04:28:55.424Z,13.24
2022-11-03T04:30:18.359Z,15.14
2022-11-03T04:31:39.621Z,15.32
2022-11-03T04:33:01.191Z,11.94
2022-11-03T04:34:23.013Z,14.11
2022-11-03T04:35:44.471Z,12.99
2022-11-03T04:37:07.724Z,12.81
2022-11-03T04:38:28.736Z,12.86
2022-11-03T04:39:50.250Z,12.57
2022-11-03T04:42:27.171Z,11.24
2022-11-03T04:43:48.265Z,12.87
2022-11-03T04:45:28.004Z,14.71
2022-11-03T04:46:49.498Z,15.71
2022-11-03T04:48:20.567Z,14.57
2022-11-03T04:49:42.277Z,14.73
2022-11-03T04:51:07.560Z,15.07
2022-11-03T04:52:28.712Z,11.93
2022-11-03T04:53:53.089Z,14.79
2022-11-03T04:55:15.249Z,14.37
2022-11-03T04:56:36.497Z,13.55
2022-11-03T04:57:59.617Z,15.96
2022-11-03T05:00:41.500Z,12.42
2022-11-03T05:02:03.243Z,13.87
2022-11-03T05:03:26.423Z,11.04
2022-11-03T05:08:41.592Z,15.70
2022-11-03T05:10:03.102Z,16.19
2022-11-03T05:12:14.442Z,15.85
2022-11-03T05:13:36.031Z,15.09
2022-11-03T05:14:58.920Z,15.38
2022-11-03T05:16:21.137Z,12.51
2022-11-03T05:17:42.318Z,13.02
2022-11-03T05:19:03.956Z,14.03
2022-11-03T05:20:35.693Z,14.15
2022-11-03T05:21:55.404Z,14.27
2022-11-03T05:23:18.515Z,13.25
2022-11-03T05:24:39.733Z,15.52
2022-11-03T05:26:00.822Z,14.09
2022-11-03T05:27:22.500Z,15.28
2022-11-03T05:29:59.576Z,13.09
2022-11-03T05:32:37.427Z,15.26
2022-11-03T05:35:21.856Z,11.68
2022-11-03T05:36:46.366Z,12.18
2022-11-03T05:38:12.267Z,14.10
2022-11-03T05:39:37.756Z,15.50
2022-11-03T05:40:59.822Z,14.46
2022-11-03T05:43:48.512Z,14.31
2022-11-03T05:45:26.197Z,14.61
2022-11-03T05:46:48.953Z,13.76
2022-11-03T05:49:46.713Z,14.12
2022-11-03T05:52:47.523Z,12.82
2022-11-03T05:55:29.506Z,13.22
2022-11-03T05:56:51.089Z,14.01
2022-11-03T05:58:30.939Z,11.82
2022-11-03T05:59:52.474Z,14.48
2022-11-03T06:02:45.163Z,12.28
2022-11-03T06:04:16.684Z,13.67
2022-11-03T06:05:38.226Z,15.13
2022-11-03T06:07:02.957Z,13.38
2022-11-03T06:08:29.826Z,13.91
2022-11-03T06:11:04.252Z,15.08
2022-11-03T06:12:25.648Z,15.81
2022-11-03T06:13:47.005Z,14.81
2022-11-03T06:15:09.944Z,13.45
2022-11-03T06:18:13.518Z,11.03
2022-11-03T06:19:44.269Z,14.07
2022-11-03T06:21:14.925Z,14.66
2022-11-03T06:22:36.813Z,14.59
2022-11-03T06:24:02.644Z,17.11
2022-11-03T06:25:35.350Z,14.39
2022-11-03T06:26:57.851Z,13.89
2022-11-03T06:28:24.111Z,14.63
2022-11-03T06:31:30.540Z,11.13
2022-11-03T06:34:35.338Z,13.24
2022-11-03T06:37:25.302Z,13.97
2022-11-03T06:40:19.429Z,14.44
2022-11-03T06:41:41.501Z,15.28
2022-11-03T06:43:25.186Z,12.88
2022-11-03T06:44:48.226Z,14.62
2022-11-03T06:47:32.846Z,17.02
2022-11-03T06:48:58.087Z,13.18
2022-11-03T06:50:26.072Z,14.48
2022-11-03T06:51:50.069Z,15.12
2022-11-03T06:54:32.477Z,12.40
2022-11-03T06:55:53.977Z,13.49
2022-11-03T06:57:15.600Z,13.48
2022-11-03T06:58:37.112Z,14.82
2022-11-03T07:00:13.337Z,11.08
2022-11-03T07:03:06.835Z,11.71
2022-11-03T07:04:28.684Z,14.61
2022-11-03T07:05:50.099Z,12.01
2022-11-03T07:07:11.938Z,15.54
2022-11-03T07:09:56.607Z,13.53
2022-11-03T07:11:20.797Z,10.66
2022-11-03T07:12:43.378Z,11.23
2022-11-03T07:14:13.870Z,11.66
2022-11-03T07:15:36.379Z,16.42
2022-11-03T07:18:19.326Z,11.21
2022-11-03T07:19:41.652Z,10.84
2022-11-03T07:21:06.346Z,12.59
2022-11-03T07:22:27.442Z,11.14
2022-11-03T07:23:48.500Z,13.78
2022-11-03T07:26:33.020Z,10.48
2022-11-03T07:27:54.244Z,12.53
2022-11-03T07:29:21.314Z,10.11
2022-11-03T07:30:43.174Z,13.43
2022-11-03T07:33:30.217Z,13.35
2022-11-03T07:34:52.284Z,13.81
2022-11-03T07:36:21.425Z,14.87
2022-11-03T07:38:59.774Z,12.81
2022-11-03T07:40:25.222Z,15.60
2022-11-03T07:41:46.971Z,14.88
2022-11-03T07:43:26.805Z,14.63
2022-11-03T07:44:51.191Z,13.48
2022-11-03T07:46:14.045Z,15.28
2022-11-03T07:47:35.431Z,14.03
2022-11-03T07:48:58.925Z,17.47
2022-11-03T07:50:20.072Z,16.62
2022-11-03T07:51:41.438Z,13.34
2022-11-03T07:53:06.837Z,15.36
2022-11-03T07:54:29.924Z,14.65
2022-11-03T07:57:20.889Z,14.04
2022-11-03T07:58:42.194Z,14.60
2022-11-03T08:00:10.066Z,17.38
2022-11-03T08:01:35.331Z,18.71
2022-11-03T08:02:59.152Z,18.29
2022-11-03T08:04:22.953Z,24.39
2022-11-03T08:05:45.431Z,18.35
2022-11-03T08:07:06.498Z,18.88
2022-11-03T08:08:27.875Z,20.31
2022-11-03T08:09:49.651Z,19.77
2022-11-03T08:11:10.822Z,17.16
2022-11-03T08:12:32.230Z,22.63
2022-11-03T08:13:53.413Z,19.16
2022-11-03T08:15:14.998Z,23.18
2022-11-03T08:16:36.609Z,17.49
2022-11-03T08:18:00.182Z,21.12
2022-11-03T08:19:22.438Z,18.75
2022-11-03T08:20:50.636Z,25.28
2022-11-03T08:22:13.903Z,19.62
2022-11-03T08:24:55.920Z,21.52
2022-11-03T08:26:17.276Z,18.09
2022-11-03T08:27:38.488Z,25.78
2022-11-03T08:30:12.677Z,23.83
2022-11-03T08:31:33.903Z,20.06
2022-11-03T08:32:55.580Z,23.60
2022-11-03T08:34:17.416Z,25.43
2022-11-03T08:35:38.560Z,21.16
2022-11-03T08:37:00.098Z,17.83
2022-11-03T08:38:22.191Z,23.29
2022-11-03T08:39:43.372Z,18.91
2022-11-03T08:41:05.123Z,18.74
2022-11-03T08:42:26.747Z,18.83
2022-11-03T08:43:48.392Z,16.34
2022-11-03T08:45:09.885Z,19.56
2022-11-03T08:46:31.279Z,17.86
2022-11-03T08:47:52.411Z,14.25
2022-11-03T08:49:14.265Z,14.59
2022-11-03T08:50:37.008Z,16.03
2022-11-03T08:51:58.240Z,21.56
2022-11-03T08:53:20.016Z,20.92
2022-11-03T08:54:41.773Z,15.51
2022-11-03T08:56:03.420Z,15.73
2022-11-03T08:57:26.737Z,15.52
2022-11-03T08:58:48.591Z,16.56
2022-11-03T09:01:25.509Z,13.60
2022-11-03T09:02:47.089Z,20.53
2022-11-03T09:04:08.731Z,21.62
2022-11-03T09:05:29.917Z,22.33
2022-11-03T09:06:52.332Z,15.42
2022-11-03T09:10:48.973Z,16.30
2022-11-03T09:12:11.872Z,11.21
2022-11-03T09:13:33.233Z,14.66
2022-11-03T09:14:54.596Z,12.51
2022-11-03T09:16:16.501Z,14.49
2022-11-03T09:17:40.566Z,11.54
2022-11-03T09:19:02.233Z,12.06
2022-11-03T09:20:23.437Z,15.16
2022-11-03T09:23:13.758Z,14.51
2022-11-03T09:24:35.667Z,21.29
2022-11-03T09:26:00.208Z,10.79
2022-11-03T09:27:21.855Z,10.17
2022-11-03T09:28:43.169Z,8.67
2022-11-03T09:30:13.925Z,10.55
2022-11-03T09:31:28.446Z,10.18
2022-11-03T09:32:50.192Z,11.53
2022-11-03T09:34:20.691Z,10.28
2022-11-03T09:35:43.074Z,10.60
2022-11-03T09:37:05.549Z,16.06
2022-11-03T09:38:30.878Z,12.04
2022-11-03T09:39:54.329Z,9.36
2022-11-03T09:42:54.558Z,11.93
2022-11-03T09:45:37.409Z,12.57
2022-11-03T09:47:00.328Z,10.78
2022-11-03T09:48:21.900Z,11.42
2022-11-03T09:49:44.925Z,10.66
2022-11-03T09:51:08.313Z,11.82
2022-11-03T09:52:30.282Z,7.73
2022-11-03T09:53:51.495Z,12.74
2022-11-03T09:55:17.619Z,10.47
2022-11-03T09:56:39.605Z,9.90
2022-11-03T09:59:21.397Z,7.12
2022-11-03T10:00:43.470Z,10.89
2022-11-03T10:02:07.664Z,8.79
2022-11-03T10:03:30.315Z,8.16
2022-11-03T10:04:55.125Z,10.67
2022-11-03T10:06:17.148Z,7.94
2022-11-03T10:07:38.898Z,11.36
2022-11-03T10:09:03.183Z,11.48
2022-11-03T10:10:26.940Z,6.92
2022-11-03T10:11:49.943Z,8.27
2022-11-03T10:14:27.787Z,10.54
2022-11-03T10:15:49.498Z,12.89
2022-11-03T10:17:15.490Z,10.17
2022-11-03T10:18:36.793Z,7.01
2022-11-03T10:19:59.319Z,9.47
2022-11-03T10:21:27.945Z,7.07
2022-11-03T10:22:53.426Z,7.72
2022-11-03T10:24:15.029Z,9.66
2022-11-03T10:25:42.816Z,21.27
2022-11-03T10:27:04.287Z,11.77
2022-11-03T10:28:25.847Z,9.76
2022-11-03T10:30:05.380Z,11.35
2022-11-03T10:31:34.747Z,9.27
2022-11-03T10:32:57.844Z,9.36
2022-11-03T10:34:36.392Z,11.78
2022-11-03T10:37:17.675Z,8.14
2022-11-03T10:38:39.069Z,10.07
2022-11-03T10:40:00.488Z,9.02
2022-11-03T10:41:27.775Z,7.06
2022-11-03T10:42:53.441Z,7.67
2022-11-03T10:44:17.508Z,9.00
2022-11-03T10:45:41.127Z,8.91
2022-11-03T10:47:03.741Z,9.32
2022-11-03T10:48:27.267Z,6.02
2022-11-03T10:49:48.338Z,6.92
2022-11-03T10:51:11.762Z,7.29
2022-11-03T10:53:58.002Z,8.40
2022-11-03T10:55:23.990Z,6.84
2022-11-03T10:56:44.855Z,5.58
2022-11-03T10:58:06.547Z,6.79
2022-11-03T10:59:32.287Z,7.27
2022-11-03T11:00:55.591Z,6.89
2022-11-03T11:02:20.549Z,5.39
2022-11-03T11:03:42.812Z,7.92
2022-11-03T11:05:07.698Z,5.94
2022-11-03T11:06:31.453Z,5.78
2022-11-03T11:07:59.807Z,6.79
2022-11-03T11:09:25.460Z,5.81
2022-11-03T11:10:46.661Z,7.68
2022-11-03T11:12:19.747Z,6.03
2022-11-03T11:13:41.034Z,8.97
2022-11-03T11:15:03.654Z,9.98
2022-11-03T11:17:49.541Z,5.48
2022-11-03T11:19:10.765Z,6.97
2022-11-03T11:20:43.253Z,5.49
2022-11-03T11:23:35.998Z,5.12
2022-11-03T11:24:58.037Z,8.28
2022-11-03T11:26:35.617Z,6.46
2022-11-03T11:28:04.482Z,6.75
2022-11-03T11:29:33.681Z,6.06
2022-11-03T11:30:55.575Z,6.28
2022-11-03T11:35:32.053Z,9.46
2022-11-03T11:36:57.807Z,6.94
2022-11-03T11:38:55.530Z,6.43
2022-11-03T11:40:27.452Z,5.38
2022-11-03T11:42:07.835Z,5.96
2022-11-03T11:43:29.980Z,8.05
2022-11-03T11:47:50.226Z,9.68
2022-11-03T11:49:16.013Z,4.88
2022-11-03T11:50:42.131Z,4.66
2022-11-03T11:52:03.562Z,7.08
2022-11-03T11:53:31.520Z,4.09
2022-11-03T11:54:49.506Z,5.38
2022-11-03T11:56:19.726Z,5.72
2022-11-03T11:57:41.343Z,8.92
2022-11-03T11:59:09.309Z,5.93
2022-11-03T12:00:34.833Z,7.87
2022-11-03T12:01:58.612Z,4.73
2022-11-03T12:04:38.224Z,5.66
2022-11-03T12:05:59.845Z,7.50
2022-11-03T12:07:45.033Z,4.64
2022-11-03T12:09:08.507Z,4.65
2022-11-03T12:10:30.420Z,5.90
2022-11-03T12:11:55.697Z,5.08
2022-11-03T12:13:35.424Z,6.58
2022-11-03T12:14:57.380Z,7.98
2022-11-03T12:16:34.508Z,6.22
2022-11-03T12:20:51.852Z,5.39
2022-11-03T12:23:45.718Z,5.99
2022-11-03T12:25:27.593Z,4.72
2022-11-03T12:26:49.531Z,4.72
2022-11-03T12:28:13.011Z,6.35
2022-11-03T12:29:36.126Z,6.00
2022-11-03T12:32:33.763Z,4.27
2022-11-03T12:33:47.174Z,9.00
2022-11-03T12:35:09.205Z,6.16
2022-11-03T12:36:31.015Z,6.71
2022-11-03T12:37:52.142Z,5.18
2022-11-03T12:39:27.230Z,8.69
2022-11-03T12:40:48.301Z,5.77
2022-11-03T12:42:10.503Z,4.92
2022-11-03T12:43:34.512Z,5.62
2022-11-03T12:44:55.515Z,5.73
2022-11-03T12:46:18.411Z,5.79
2022-11-03T12:47:39.567Z,5.29
2022-11-03T12:49:00.969Z,7.42
2022-11-03T12:50:24.794Z,4.60
2022-11-03T12:51:46.052Z,5.99
2022-11-03T12:53:07.814Z,5.54
2022-11-03T12:54:33.568Z,6.13
2022-11-03T12:55:54.760Z,6.19
2022-11-03T12:57:16.819Z,7.38
2022-11-03T12:58:41.279Z,4.44
2022-11-03T13:00:13.387Z,5.94
2022-11-03T13:01:34.713Z,8.00
2022-11-03T13:02:56.199Z,8.36
2022-11-03T13:04:17.926Z,7.09
2022-11-03T13:05:39.862Z,5.87
2022-11-03T13:07:01.677Z,5.62
2022-11-03T13:08:23.849Z,7.63
2022-11-03T13:09:47.105Z,7.26
2022-11-03T13:11:10.813Z,5.15
2022-11-03T13:12:35.035Z,5.02
2022-11-03T13:13:57.272Z,6.69
2022-11-03T13:15:21.356Z,6.72
2022-11-03T13:16:42.772Z,5.99
2022-11-03T13:18:13.546Z,6.69
2022-11-03T13:19:30.073Z,10.67
2022-11-03T13:20:51.188Z,5.04
2022-11-03T13:22:25.565Z,7.10
2022-11-03T13:23:48.575Z,7.24
2022-11-03T13:25:24.811Z,6.97
2022-11-03T13:26:50.009Z,9.07
2022-11-03T13:28:19.680Z,9.38
2022-11-03T13:29:43.224Z,8.67
2022-11-03T13:31:08.150Z,4.52
2022-11-03T13:32:30.556Z,8.04
2022-11-03T13:33:54.443Z,7.81
2022-11-03T13:35:16.825Z,7.40
2022-11-03T13:36:38.918Z,7.47
2022-11-03T13:38:00.004Z,8.69
2022-11-03T13:39:21.995Z,13.19
2022-11-03T13:40:56.246Z,7.64
2022-11-03T13:42:06.947Z,7.21
2022-11-03T13:44:43.580Z,7.44
2022-11-03T13:46:05.652Z,12.58
2022-11-03T13:47:44.048Z,5.79
2022-11-03T13:49:44.683Z,6.70
2022-11-03T13:50:15.593Z,5.69
2022-11-03T13:51:38.497Z,6.80
2022-11-03T13:55:49.331Z,5.57
2022-11-03T13:59:59.070Z,6.48
2022-11-03T14:01:24.775Z,8.16
2022-11-03T14:05:34.028Z,8.41
2022-11-03T14:06:55.413Z,8.04
2022-11-03T14:08:16.586Z,5.39
2022-11-03T14:09:40.132Z,6.75
2022-11-03T14:11:02.667Z,4.86
2022-11-03T14:12:23.932Z,4.46
2022-11-03T14:13:45.272Z,8.54
2022-11-03T14:15:09.703Z,6.37
2022-11-03T14:16:30.902Z,7.74
2022-11-03T14:17:52.222Z,7.64
2022-11-03T14:19:14.143Z,4.95
2022-11-03T14:20:37.950Z,8.61
2022-11-03T14:22:00.853Z,6.26
2022-11-03T14:24:37.074Z,7.69
2022-11-03T14:26:13.174Z,8.61
2022-11-03T14:27:25.705Z,5.61
2022-11-03T14:28:47.635Z,6.31
2022-11-03T14:30:10.763Z,5.41
2022-11-03T14:33:06.501Z,8.68
2022-11-03T14:34:19.211Z,8.99
2022-11-03T14:35:40.624Z,9.63
2022-11-03T14:37:02.710Z,9.33
2022-11-03T14:38:24.372Z,5.97
2022-11-03T14:39:52.447Z,6.91
2022-11-03T14:41:14.378Z,7.03
2022-11-03T14:42:37.032Z,5.89
2022-11-03T14:43:58.329Z,6.24
2022-11-03T14:45:21.681Z,8.45
2022-11-03T14:46:43.024Z,9.45
2022-11-03T14:48:04.804Z,7.72
2022-11-03T14:49:27.133Z,8.76
2022-11-03T14:50:48.997Z,7.19
2022-11-03T14:52:10.409Z,10.86
2022-11-03T14:53:32.104Z,10.20
2022-11-03T14:54:53.856Z,10.32
2022-11-03T14:56:16.106Z,8.13
2022-11-03T14:57:37.409Z,8.42
2022-11-03T14:58:58.742Z,12.29
2022-11-03T15:00:19.936Z,8.78
2022-11-03T15:01:43.016Z,12.62
2022-11-03T15:03:06.682Z,14.26
2022-11-03T15:04:27.821Z,16.22
2022-11-03T15:05:49.081Z,14.02
2022-11-03T15:07:11.735Z,11.48
2022-11-03T15:08:34.046Z,14.03
2022-11-03T15:09:55.164Z,12.89
2022-11-03T15:11:16.480Z,13.69
2022-11-03T15:12:37.607Z,14.61
2022-11-03T15:13:59.107Z,14.04
2022-11-03T15:15:20.215Z,16.75
2022-11-03T15:16:41.536Z,14.96
2022-11-03T15:18:03.285Z,12.19
2022-11-03T15:20:33.988Z,11.52
2022-11-03T15:21:58.820Z,16.78
2022-11-03T15:26:10.419Z,16.62
2022-11-03T15:27:31.519Z,17.37
2022-11-03T15:28:53.366Z,19.99
2022-11-03T15:30:14.856Z,25.76
2022-11-03T15:31:36.157Z,24.40
2022-11-03T15:32:57.584Z,21.20
2022-11-03T15:34:19.063Z,19.22
2022-11-03T15:35:41.771Z,24.76
2022-11-03T15:37:02.907Z,24.19
2022-11-03T15:38:24.362Z,25.11
2022-11-03T15:39:46.181Z,22.16
2022-11-03T15:41:07.414Z,22.16
2022-11-03T15:42:28.992Z,21.82
2022-11-03T15:45:09.685Z,20.18
2022-11-03T15:46:31.140Z,20.26
2022-11-03T15:47:55.928Z,38.71
2022-11-03T15:49:15.652Z,35.48
2022-11-03T15:50:36.972Z,33.22
2022-11-03T15:51:58.031Z,26.70
2022-11-03T15:53:20.428Z,16.10
2022-11-03T15:54:45.294Z,19.47
2022-11-03T15:56:07.429Z,20.64
2022-11-03T15:57:28.538Z,21.22
2022-11-03T15:58:51.109Z,17.11
2022-11-03T16:00:13.044Z,24.34
2022-11-03T16:01:34.068Z,24.74
2022-11-03T16:02:55.647Z,21.85
2022-11-03T16:04:23.924Z,22.03
2022-11-03T16:05:45.185Z,17.82
2022-11-03T16:07:08.193Z,22.17
2022-11-03T16:09:50.928Z,21.88
2022-11-03T16:11:12.346Z,17.79
2022-11-03T16:12:34.022Z,17.48
2022-11-03T16:13:55.617Z,17.41
2022-11-03T16:15:17.169Z,27.84
2022-11-03T16:16:38.824Z,20.18
2022-11-03T16:18:00.177Z,23.01
2022-11-03T16:19:21.630Z,22.56
2022-11-03T16:20:43.207Z,24.44
2022-11-03T16:22:04.299Z,29.51
2022-11-03T16:24:37.605Z,24.03
2022-11-03T16:25:59.148Z,22.76
2022-11-03T16:27:20.674Z,24.50
2022-11-03T16:28:42.311Z,22.73
2022-11-03T16:30:05.301Z,30.77
2022-11-03T16:31:28.774Z,28.04
2022-11-03T16:32:50.217Z,23.41
2022-11-03T16:34:11.620Z,26.81
2022-11-03T16:35:33.139Z,25.46
2022-11-03T16:36:56.150Z,26.93
2022-11-03T16:38:17.573Z,25.38
2022-11-03T16:39:38.821Z,28.61
2022-11-03T16:41:00.287Z,26.78
2022-11-03T16:42:22.447Z,35.77
2022-11-03T16:43:44.208Z,31.78
2022-11-03T16:46:28.248Z,38.04
2022-11-03T16:47:49.701Z,33.71
2022-11-03T16:49:11.271Z,40.06
2022-11-03T16:50:35.224Z,34.95
2022-11-03T16:51:58.366Z,33.12
2022-11-03T16:53:19.443Z,37.21
2022-11-03T16:54:43.379Z,36.38
2022-11-03T16:56:05.018Z,57.68
2022-11-03T16:57:26.632Z,42.14
2022-11-03T16:58:48.058Z,44.57
2022-11-03T17:01:25.060Z,52.54
2022-11-03T17:02:47.602Z,65.38
2022-11-03T17:04:10.103Z,59.92
2022-11-03T17:05:31.736Z,60.11
2022-11-03T17:06:53.534Z,68.15
2022-11-03T17:08:39.050Z,52.76
2022-11-03T17:09:39.175Z,61.17
2022-11-03T17:11:00.742Z,57.06
2022-11-03T17:12:22.116Z,66.19
2022-11-03T17:14:56.756Z,78.83
2022-11-03T17:16:18.097Z,82.79
2022-11-03T17:17:39.423Z,86.26
2022-11-03T17:19:01.009Z,67.46
2022-11-03T17:20:22.548Z,73.66
2022-11-03T17:21:43.689Z,69.77
2022-11-03T17:23:04.792Z,79.47
2022-11-03T17:24:26.370Z,85.57
2022-11-03T17:25:48.332Z,77.04
2022-11-03T17:27:18.226Z,70.69
2022-11-03T17:28:39.388Z,72.87
2022-11-03T17:30:03.587Z,61.40
2022-11-03T17:31:24.623Z,47.57
2022-11-03T17:32:47.060Z,39.23
2022-11-03T17:34:11.102Z,34.43
2022-11-03T17:35:39.317Z,39.07
2022-11-03T17:36:58.617Z,43.19
2022-11-03T17:38:22.211Z,33.13
2022-11-03T17:39:44.079Z,36.47
2022-11-03T17:41:06.141Z,36.14
2022-11-03T17:42:29.810Z,46.70
2022-11-03T17:43:51.228Z,39.68
2022-11-03T17:45:16.967Z,39.66
2022-11-03T17:46:39.571Z,30.03
2022-11-03T17:49:22.504Z,34.48
2022-11-03T17:50:48.355Z,37.12
2022-11-03T17:53:29.119Z,56.39
2022-11-03T17:54:51.265Z,47.27
2022-11-03T17:56:29.791Z,42.19
2022-11-03T17:57:38.731Z,42.87
2022-11-03T17:59:00.101Z,43.52
2022-11-03T18:00:21.698Z,38.70
2022-11-03T18:01:43.618Z,43.61
2022-11-03T18:03:08.346Z,41.74
2022-11-03T18:04:31.134Z,44.14
2022-11-03T18:05:52.486Z,45.58
2022-11-03T18:07:28.600Z,39.78
2022-11-03T18:08:51.228Z,50.06
2022-11-03T18:10:12.608Z,40.98
2022-11-03T18:11:34.129Z,40.61
2022-11-03T18:12:57.783Z,42.10
2022-11-03T18:14:22.178Z,46.86
2022-11-03T18:15:51.929Z,41.75
2022-11-03T18:17:13.150Z,41.84
2022-11-03T18:18:39.706Z,40.93
2022-11-03T18:20:01.120Z,37.02
2022-11-03T18:21:22.641Z,43.68
2022-11-03T18:22:43.960Z,42.77
2022-11-03T18:24:16.449Z,42.43
2022-11-03T18:25:37.804Z,42.34
2022-11-03T18:26:59.109Z,54.07
2022-11-03T18:28:20.671Z,57.37
2022-11-03T18:29:41.961Z,58.12
2022-11-03T18:31:04.732Z,57.21
2022-11-03T18:32:27.884Z,67.22
2022-11-03T18:33:50.527Z,73.98
2022-11-03T18:36:33.349Z,72.60
2022-11-03T18:37:55.196Z,101.63
2022-11-03T18:40:31.948Z,69.71
2022-11-03T18:41:53.458Z,59.90
2022-11-03T18:43:21.829Z,63.52
2022-11-03T18:44:43.006Z,73.78
2022-11-03T18:46:04.836Z,72.81
2022-11-03T18:47:28.513Z,61.97
2022-11-03T18:48:50.373Z,59.58
2022-11-03T18:50:13.807Z,66.28
2022-11-03T18:52:57.233Z,51.68
2022-11-03T18:54:24.522Z,54.71
2022-11-03T18:55:45.776Z,50.25
2022-11-03T18:57:09.271Z,41.71
2022-11-03T18:58:31.445Z,56.04
2022-11-03T18:59:53.988Z,64.19
2022-11-03T19:01:20.536Z,65.88
2022-11-03T19:02:43.195Z,69.44
2022-11-03T19:04:04.463Z,73.39
2022-11-03T19:05:26.056Z,60.02
2022-11-03T19:06:48.189Z,71.16
2022-11-03T19:08:23.223Z,71.66
2022-11-03T19:09:46.749Z,66.09
2022-11-03T19:11:09.948Z,56.38
2022-11-03T19:12:38.626Z,59.53
2022-11-03T19:13:56.280Z,62.10
2022-11-03T19:15:20.824Z,47.84
2022-11-03T19:16:50.271Z,42.27
2022-11-03T19:18:05.998Z,40.94
2022-11-03T19:19:27.445Z,38.33
2022-11-03T19:20:49.026Z,59.67
2022-11-03T19:22:14.750Z,49.96
2022-11-03T19:23:36.061Z,58.74
2022-11-03T19:24:59.047Z,60.86
2022-11-03T19:26:27.972Z,55.87
2022-11-03T19:27:49.547Z,53.11
2022-11-03T19:29:13.067Z,49.32
2022-11-03T19:30:34.005Z,58.25
2022-11-03T19:31:55.042Z,48.82
2022-11-03T19:34:37.812Z,56.40
2022-11-03T19:36:01.389Z,61.83
2022-11-03T19:37:25.599Z,51.39
2022-11-03T19:38:46.746Z,57.96
2022-11-03T19:40:14.329Z,38.56
2022-11-03T19:41:35.970Z,45.31
2022-11-03T19:42:57.292Z,52.59
2022-11-03T19:44:18.586Z,48.59
2022-11-03T19:45:40.258Z,44.06
2022-11-03T19:47:02.101Z,51.86
2022-11-03T19:48:24.769Z,50.03
2022-11-03T19:51:07.359Z,50.04
2022-11-03T19:52:29.625Z,50.44
2022-11-03T19:53:52.430Z,49.74
2022-11-03T19:55:14.951Z,55.79
2022-11-03T19:56:38.713Z,59.77
2022-11-03T19:58:08.781Z,52.23
2022-11-03T19:59:30.731Z,54.68
2022-11-03T20:00:52.694Z,63.06
2022-11-03T20:02:14.099Z,52.94
2022-11-03T20:03:35.833Z,56.73
2022-11-03T20:04:57.490Z,55.23
2022-11-03T20:06:19.655Z,47.63
2022-11-03T20:07:43.980Z,52.49
2022-11-03T20:09:05.366Z,54.30
2022-11-03T20:10:33.223Z,51.33
2022-11-03T20:11:55.703Z,53.45